Time;durP1;ratioP1;P1;durP2;ratioP2;P2;SDS_P1;SDS_P2;PMS_P1;PMS_P2;Temp;Humidity;BMP_temperature;BMP_pressure;BME280_temperature;BME280_humidity;BME280_pressure;Samples;Min_cycle;Max_cycle;Signal;HPM_P1;HPM_P2
2023/07/25 00:00:36;;;;;;;0.20;0.10;;;;;;;;;;5070402;28;20036;-85
2023/07/25 00:03:02;;;;;;;0.20;0.10;;;;;;;;;;5049006;28;20040;-85
2023/07/25 00:05:28;;;;;;;0.20;0.10;;;;;;;;;;5064041;28;20088;-84
2023/07/25 00:07:54;;;;;;;0.30;0.13;;;;;;;;;;5049759;28;20040;-85
2023/07/25 00:10:21;;;;;;;0.20;0.00;;;;;;;;;;5067061;28;20051;-85
2023/07/25 00:12:52;;;;;;;0.20;0.10;;;;;;;;;;5049970;28;20653;-84
2023/07/25 00:15:18;;;;;;;0.30;0.20;;;;;;;;;;5042417;28;20036;-85
2023/07/25 00:17:44;;;;;;;0.20;0.10;;;;;;;;;;5054188;28;20493;-84
2023/07/25 00:20:10;;;;;;;0.20;0.00;;;;;;;;;;5044125;28;20058;-85
2023/07/25 00:22:36;;;;;;;0.20;0.10;;;;;;;;;;5055558;28;20055;-85
2023/07/25 00:25:02;;;;;;;0.20;0.08;;;;;;;;;;5073015;28;20036;-86
2023/07/25 00:27:28;;;;;;;0.30;0.30;;;;;;;;;;5051698;28;20049;-85
2023/07/25 00:29:54;;;;;;;0.20;0.00;;;;;;;;;;5070386;28;20058;-84
2023/07/25 00:32:20;;;;;;;0.20;0.10;;;;;;;;;;5055985;28;20046;-85
2023/07/25 00:34:46;;;;;;;0.20;0.10;;;;;;;;;;5060183;28;20044;-85
2023/07/25 00:37:12;;;;;;;0.20;0.10;;;;;;;;;;5051633;28;20044;-89
2023/07/25 00:39:38;;;;;;;0.20;0.10;;;;;;;;;;5062271;28;20468;-89
2023/07/25 00:42:05;;;;;;;0.20;0.10;;;;;;;;;;5055252;28;20043;-86
2023/07/25 00:44:31;;;;;;;0.20;0.05;;;;;;;;;;5066549;28;20532;-86
2023/07/25 00:46:57;;;;;;;0.20;0.10;;;;;;;;;;5059496;28;20092;-88
2023/07/25 00:49:23;;;;;;;0.65;0.20;;;;;;;;;;5058978;28;20041;-88
2023/07/25 00:51:50;;;;;;;0.20;0.10;;;;;;;;;;5059258;28;20425;-87
2023/07/25 00:54:16;;;;;;;0.20;0.10;;;;;;;;;;5051731;28;20051;-87
2023/07/25 00:56:42;;;;;;;0.43;0.20;;;;;;;;;;5057102;28;20097;-86
2023/07/25 00:59:08;;;;;;;0.20;0.10;;;;;;;;;;5076202;28;20075;-86
2023/07/25 01:01:35;;;;;;;0.20;0.08;;;;;;;;;;5071079;28;20047;-87
2023/07/25 01:04:01;;;;;;;0.20;0.00;;;;;;;;;;5052537;28;20078;-88
2023/07/25 01:06:27;;;;;;;0.20;0.00;;;;;;;;;;5044530;28;20477;-87
2023/07/25 01:08:54;;;;;;;0.20;0.03;;;;;;;;;;5054597;28;20067;-87
2023/07/25 01:11:21;;;;;;;0.20;0.00;;;;;;;;;;5073868;28;20162;-86
2023/07/25 01:13:47;;;;;;;0.20;0.10;;;;;;;;;;5057270;28;20081;-87
2023/07/25 01:16:17;;;;;;;0.20;0.15;;;;;;;;;;5043727;28;20123;-86
2023/07/25 01:18:44;;;;;;;0.20;0.00;;;;;;;;;;5059626;28;20462;-88
2023/07/25 01:21:10;;;;;;;0.20;0.05;;;;;;;;;;5053223;28;20036;-88
2023/07/25 01:23:37;;;;;;;0.85;0.25;;;;;;;;;;5049100;28;20054;-87
2023/07/25 01:26:03;;;;;;;0.20;0.10;;;;;;;;;;5049471;28;20527;-87
2023/07/25 01:28:30;;;;;;;0.20;0.10;;;;;;;;;;5062851;28;20064;-87
2023/07/25 01:30:56;;;;;;;0.20;0.10;;;;;;;;;;5062467;28;20070;-87
2023/07/25 01:33:23;;;;;;;0.20;0.00;;;;;;;;;;5069511;28;20048;-87
2023/07/25 01:35:49;;;;;;;0.20;0.00;;;;;;;;;;5057887;28;20052;-87
2023/07/25 01:38:15;;;;;;;0.20;0.10;;;;;;;;;;5067184;28;20526;-87
2023/07/25 01:40:41;;;;;;;0.20;0.10;;;;;;;;;;5068793;28;20075;-86
2023/07/25 01:43:07;;;;;;;0.20;0.00;;;;;;;;;;5053309;28;20039;-86
2023/07/25 01:45:36;;;;;;;0.20;0.00;;;;;;;;;;5068641;28;20032;-86
2023/07/25 01:48:03;;;;;;;0.90;0.90;;;;;;;;;;5052736;28;20040;-86
2023/07/25 01:50:29;;;;;;;0.20;0.10;;;;;;;;;;5059433;28;20080;-86
2023/07/25 01:52:55;;;;;;;0.20;0.00;;;;;;;;;;5067604;28;20036;-88
2023/07/25 01:55:21;;;;;;;0.20;0.10;;;;;;;;;;5046959;28;20044;-87
2023/07/25 01:57:47;;;;;;;0.20;0.20;;;;;;;;;;5055584;28;20032;-86
2023/07/25 02:00:13;;;;;;;0.20;0.00;;;;;;;;;;5068480;28;20067;-86
2023/07/25 02:02:39;;;;;;;0.20;0.00;;;;;;;;;;5077062;28;20040;-87
2023/07/25 02:05:06;;;;;;;0.20;0.10;;;;;;;;;;5055675;28;20039;-87
2023/07/25 02:07:32;;;;;;;0.57;0.57;;;;;;;;;;5051744;28;20036;-87
2023/07/25 02:09:58;;;;;;;0.20;0.10;;;;;;;;;;5064605;28;20051;-86
2023/07/25 02:12:25;;;;;;;0.20;0.10;;;;;;;;;;5054346;28;20039;-87
2023/07/25 02:14:51;;;;;;;0.20;0.00;;;;;;;;;;5062083;28;20044;-89
2023/07/25 02:17:19;;;;;;;0.60;0.43;;;;;;;;;;5049231;28;20040;-89
2023/07/25 02:19:45;;;;;;;0.20;0.10;;;;;;;;;;5071647;28;20397;-87
2023/07/25 02:22:11;;;;;;;0.20;0.08;;;;;;;;;;5048799;28;20098;-87
2023/07/25 02:24:37;;;;;;;0.20;0.10;;;;;;;;;;5079574;28;20040;-86
2023/07/25 02:27:03;;;;;;;0.28;0.17;;;;;;;;;;5053304;28;20040;-86
2023/07/25 02:29:29;;;;;;;0.20;0.10;;;;;;;;;;5045753;28;20036;-87
2023/07/25 02:31:55;;;;;;;0.20;0.03;;;;;;;;;;5052192;28;20042;-87
2023/07/25 02:34:21;;;;;;;0.20;0.10;;;;;;;;;;5066707;28;20072;-87
2023/07/25 02:36:48;;;;;;;0.20;0.10;;;;;;;;;;5063928;28;20028;-88
2023/07/25 02:39:14;;;;;;;0.20;0.10;;;;;;;;;;5064446;28;20501;-89
2023/07/25 02:41:40;;;;;;;0.20;0.00;;;;;;;;;;5049712;28;20108;-87
2023/07/25 02:44:07;;;;;;;0.20;0.10;;;;;;;;;;5048814;28;20040;-92
2023/07/25 02:46:33;;;;;;;0.20;0.10;;;;;;;;;;5059074;28;20043;-86
2023/07/25 02:48:59;;;;;;;0.20;0.00;;;;;;;;;;5044620;28;20168;-86
2023/07/25 02:51:25;;;;;;;0.20;0.03;;;;;;;;;;5070620;28;20127;-87
2023/07/25 02:53:51;;;;;;;0.20;0.00;;;;;;;;;;5050657;28;20504;-86
2023/07/25 02:56:17;;;;;;;0.20;0.10;;;;;;;;;;5053761;28;20067;-87
2023/07/25 02:58:43;;;;;;;0.20;0.10;;;;;;;;;;5074548;28;20059;-87
2023/07/25 03:01:09;;;;;;;0.20;0.10;;;;;;;;;;5053160;28;20036;-86
2023/07/25 03:03:35;;;;;;;0.25;0.20;;;;;;;;;;5045142;28;20043;-87
2023/07/25 03:06:01;;;;;;;0.20;0.10;;;;;;;;;;5071420;28;20512;-86
2023/07/25 03:08:27;;;;;;;0.20;0.00;;;;;;;;;;5054882;28;20036;-86
2023/07/25 03:10:53;;;;;;;0.20;0.00;;;;;;;;;;5053630;28;20032;-85
2023/07/25 03:13:19;;;;;;;0.20;0.00;;;;;;;;;;5057724;28;20420;-86
2023/07/25 03:15:45;;;;;;;0.30;0.10;;;;;;;;;;5054682;28;20166;-86
2023/07/25 03:18:11;;;;;;;0.20;0.10;;;;;;;;;;5073638;28;20145;-87
2023/07/25 03:20:37;;;;;;;0.20;0.10;;;;;;;;;;5062957;28;20039;-87
2023/07/25 03:23:05;;;;;;;0.20;0.00;;;;;;;;;;5053847;28;20086;-87
2023/07/25 03:25:31;;;;;;;0.20;0.10;;;;;;;;;;5040094;28;20047;-87
2023/07/25 03:27:57;;;;;;;0.20;0.03;;;;;;;;;;5052960;28;20411;-87
2023/07/25 03:30:23;;;;;;;0.20;0.10;;;;;;;;;;5064754;28;20389;-86
2023/07/25 03:32:49;;;;;;;0.20;0.10;;;;;;;;;;5063965;28;20028;-91
2023/07/25 03:35:19;;;;;;;0.20;0.10;;;;;;;;;;5054372;28;20382;-87
2023/07/25 03:37:45;;;;;;;0.20;0.05;;;;;;;;;;5067175;28;20036;-87
2023/07/25 03:40:11;;;;;;;0.63;0.25;;;;;;;;;;5065856;28;20198;-88
2023/07/25 03:42:37;;;;;;;0.30;0.20;;;;;;;;;;5054516;28;20036;-89
2023/07/25 03:45:03;;;;;;;0.30;0.30;;;;;;;;;;5051308;28;20390;-89
2023/07/25 03:47:29;;;;;;;0.20;0.00;;;;;;;;;;5061156;28;20497;-87
2023/07/25 03:49:55;;;;;;;0.20;0.10;;;;;;;;;;5079322;28;20058;-87
2023/07/25 03:52:21;;;;;;;0.20;0.10;;;;;;;;;;5042590;28;20086;-86
2023/07/25 03:54:47;;;;;;;0.50;0.10;;;;;;;;;;5050762;28;20032;-85
2023/07/25 03:57:13;;;;;;;0.20;0.00;;;;;;;;;;5060103;28;20043;-85
2023/07/25 03:59:39;;;;;;;0.38;0.15;;;;;;;;;;5070618;28;20124;-86
2023/07/25 04:02:05;;;;;;;0.20;0.00;;;;;;;;;;5058873;28;20127;-86
2023/07/25 04:04:31;;;;;;;0.20;0.10;;;;;;;;;;5074373;28;20031;-86
2023/07/25 04:06:58;;;;;;;0.20;0.10;;;;;;;;;;5053033;28;20036;-87
2023/07/25 04:09:24;;;;;;;0.20;0.00;;;;;;;;;;5063980;28;20050;-86
2023/07/25 04:11:50;;;;;;;0.20;0.10;;;;;;;;;;5044595;28;20120;-86
2023/07/25 04:14:16;;;;;;;0.20;0.00;;;;;;;;;;5070825;28;20094;-86
2023/07/25 04:16:44;;;;;;;0.30;0.13;;;;;;;;;;5054235;28;20500;-87
2023/07/25 04:19:10;;;;;;;0.20;0.10;;;;;;;;;;5055404;28;20043;-86
2023/07/25 04:21:36;;;;;;;0.20;0.00;;;;;;;;;;5053475;28;20119;-86
2023/07/25 04:24:02;;;;;;;0.20;0.00;;;;;;;;;;5047780;28;20120;-87
2023/07/25 04:26:28;;;;;;;0.20;0.05;;;;;;;;;;5056168;28;20066;-87
2023/07/25 04:28:54;;;;;;;0.20;0.10;;;;;;;;;;5051141;28;20127;-85
2023/07/25 04:31:20;;;;;;;0.20;0.10;;;;;;;;;;5057973;28;20131;-85
2023/07/25 04:33:46;;;;;;;0.20;0.10;;;;;;;;;;5054022;28;20040;-86
2023/07/25 04:36:12;;;;;;;0.20;0.10;;;;;;;;;;5070005;28;20037;-86
2023/07/25 04:38:38;;;;;;;0.20;0.10;;;;;;;;;;5076593;28;20055;-87
2023/07/25 04:41:04;;;;;;;0.20;0.10;;;;;;;;;;5070202;28;20032;-86
2023/07/25 04:43:30;;;;;;;0.20;0.10;;;;;;;;;;5056527;28;20028;-87
2023/07/25 04:45:56;;;;;;;0.20;0.10;;;;;;;;;;5065023;28;20032;-86
2023/07/25 04:48:22;;;;;;;0.20;0.00;;;;;;;;;;5047834;28;20270;-85
2023/07/25 04:50:49;;;;;;;0.20;0.00;;;;;;;;;;5069790;28;20507;-86
2023/07/25 04:53:15;;;;;;;0.20;0.10;;;;;;;;;;5060715;28;20072;-85
2023/07/25 04:55:41;;;;;;;0.20;0.00;;;;;;;;;;5048712;28;20496;-86
2023/07/25 04:58:07;;;;;;;0.20;0.05;;;;;;;;;;5055843;28;20089;-84
2023/07/25 05:00:33;;;;;;;0.20;0.10;;;;;;;;;;5050438;28;20036;-85
2023/07/25 05:02:59;;;;;;;0.20;0.00;;;;;;;;;;5070789;28;20072;-85
2023/07/25 05:05:25;;;;;;;0.20;0.00;;;;;;;;;;5045263;28;20086;-84
2023/07/25 05:07:51;;;;;;;0.20;0.00;;;;;;;;;;5074995;28;20071;-84
2023/07/25 05:10:17;;;;;;;0.20;0.10;;;;;;;;;;5051303;28;20518;-86
2023/07/25 05:12:43;;;;;;;0.20;0.13;;;;;;;;;;5076838;28;20064;-88
2023/07/25 05:15:09;;;;;;;0.40;0.22;;;;;;;;;;5075961;28;20119;-85
2023/07/25 05:17:35;;;;;;;0.20;0.00;;;;;;;;;;5072007;28;20086;-84
2023/07/25 05:20:01;;;;;;;0.20;0.10;;;;;;;;;;5072086;28;20085;-85
2023/07/25 05:22:27;;;;;;;0.20;0.10;;;;;;;;;;5061337;28;20443;-85
2023/07/25 05:24:53;;;;;;;0.20;0.00;;;;;;;;;;5048765;28;20044;-85
2023/07/25 05:27:19;;;;;;;0.20;0.05;;;;;;;;;;5045610;28;20046;-84
2023/07/25 05:29:45;;;;;;;0.20;0.10;;;;;;;;;;5071447;28;20035;-84
2023/07/25 05:32:11;;;;;;;0.20;0.00;;;;;;;;;;5076671;28;20044;-85
2023/07/25 05:34:38;;;;;;;0.20;0.10;;;;;;;;;;5052795;28;20572;-86
2023/07/25 05:37:04;;;;;;;0.20;0.00;;;;;;;;;;5063646;28;20156;-87
2023/07/25 05:39:30;;;;;;;0.20;0.10;;;;;;;;;;5052043;28;20036;-85
2023/07/25 05:41:56;;;;;;;0.20;0.10;;;;;;;;;;5067105;28;20040;-86
2023/07/25 05:44:22;;;;;;;0.20;0.10;;;;;;;;;;5069405;28;20163;-86
2023/07/25 05:46:48;;;;;;;0.30;0.20;;;;;;;;;;5052586;22;20038;-82
2023/07/25 05:49:14;;;;;;;0.20;0.00;;;;;;;;;;5019882;28;20679;-82
2023/07/25 05:51:40;;;;;;;0.20;0.10;;;;;;;;;;5042953;28;20506;-82
2023/07/25 05:54:06;;;;;;;0.20;0.10;;;;;;;;;;5033079;28;20041;-82
2023/07/25 05:56:32;;;;;;;0.20;0.00;;;;;;;;;;5034692;28;20041;-81
2023/07/25 05:58:58;;;;;;;0.20;0.00;;;;;;;;;;5036856;28;20035;-83
2023/07/25 06:01:24;;;;;;;0.20;0.10;;;;;;;;;;5021442;28;20128;-81
2023/07/25 06:03:50;;;;;;;0.20;0.10;;;;;;;;;;5030293;28;20037;-83
2023/07/25 06:06:16;;;;;;;0.20;0.10;;;;;;;;;;5033784;28;20037;-83
2023/07/25 06:08:42;;;;;;;0.20;0.00;;;;;;;;;;5019512;28;20025;-82
2023/07/25 06:11:08;;;;;;;0.20;0.00;;;;;;;;;;5032343;28;20069;-82
2023/07/25 06:13:35;;;;;;;0.20;0.00;;;;;;;;;;5023607;28;20033;-82
2023/07/25 06:16:01;;;;;;;0.20;0.00;;;;;;;;;;5023279;28;20119;-82
2023/07/25 06:18:27;;;;;;;0.20;0.10;;;;;;;;;;5039622;28;20327;-83
2023/07/25 06:20:53;;;;;;;0.20;0.10;;;;;;;;;;5016815;28;20855;-81
2023/07/25 06:23:20;;;;;;;0.20;0.10;;;;;;;;;;5035114;28;20048;-84
2023/07/25 06:25:46;;;;;;;0.20;0.10;;;;;;;;;;5034843;28;20330;-83
2023/07/25 06:28:15;;;;;;;0.20;0.10;;;;;;;;;;5026268;28;20044;-82
2023/07/25 06:30:41;;;;;;;0.20;0.00;;;;;;;;;;5020484;28;20041;-83
2023/07/25 06:33:07;;;;;;;0.20;0.00;;;;;;;;;;5038515;28;20468;-83
2023/07/25 06:35:33;;;;;;;0.20;0.05;;;;;;;;;;5019816;28;20064;-82
2023/07/25 06:38:01;;;;;;;0.20;0.00;;;;;;;;;;5019704;28;20033;-82
2023/07/25 06:40:27;;;;;;;0.22;0.20;;;;;;;;;;5030211;28;20041;-82
2023/07/25 06:42:53;;;;;;;0.20;0.00;;;;;;;;;;5019567;28;20043;-82
2023/07/25 06:45:19;;;;;;;0.20;0.00;;;;;;;;;;5017738;28;20585;-82
2023/07/25 06:47:45;;;;;;;0.20;0.10;;;;;;;;;;5017786;28;20047;-82
2023/07/25 06:50:11;;;;;;;0.20;0.10;;;;;;;;;;5036342;28;20041;-80
2023/07/25 06:52:37;;;;;;;0.20;0.00;;;;;;;;;;5033363;28;20470;-83
2023/07/25 06:55:03;;;;;;;0.20;0.10;;;;;;;;;;5036827;28;20108;-84
2023/07/25 06:57:29;;;;;;;0.20;0.10;;;;;;;;;;5035860;28;20047;-83
2023/07/25 06:59:55;;;;;;;0.20;0.10;;;;;;;;;;5031485;28;20025;-82
2023/07/25 07:02:21;;;;;;;0.20;0.00;;;;;;;;;;5030668;28;20043;-84
2023/07/25 07:04:50;;;;;;;0.20;0.00;;;;;;;;;;5031723;28;20044;-84
2023/07/25 07:07:17;;;;;;;0.20;0.10;;;;;;;;;;5033986;28;20465;-80
2023/07/25 07:09:43;;;;;;;0.20;0.20;;;;;;;;;;5018044;28;20048;-84
2023/07/25 07:12:09;;;;;;;0.20;0.10;;;;;;;;;;5031364;28;20045;-83
2023/07/25 07:14:35;;;;;;;0.20;0.10;;;;;;;;;;5034633;28;20033;-84
2023/07/25 07:17:01;;;;;;;0.20;0.10;;;;;;;;;;5017760;28;20032;-81
2023/07/25 07:19:27;;;;;;;0.20;0.00;;;;;;;;;;5030750;28;20111;-84
2023/07/25 07:21:55;;;;;;;0.20;0.10;;;;;;;;;;5021701;28;20032;-83
2023/07/25 07:24:25;;;;;;;0.20;0.00;;;;;;;;;;5017177;28;20460;-83
2023/07/25 07:26:51;;;;;;;0.20;0.00;;;;;;;;;;5014239;28;20041;-81
2023/07/25 07:29:17;;;;;;;0.20;0.10;;;;;;;;;;5030505;28;20562;-82
2023/07/25 07:31:43;;;;;;;0.20;0.10;;;;;;;;;;5033937;28;20096;-83
2023/07/25 07:34:10;;;;;;;0.20;0.00;;;;;;;;;;5016823;28;20083;-82
2023/07/25 07:36:36;;;;;;;0.20;0.00;;;;;;;;;;5030202;28;20063;-83
2023/07/25 07:39:02;;;;;;;0.20;0.10;;;;;;;;;;5041656;28;20493;-82
2023/07/25 07:41:28;;;;;;;0.20;0.10;;;;;;;;;;5016995;28;20052;-84
2023/07/25 07:43:54;;;;;;;0.20;0.10;;;;;;;;;;5034833;28;20029;-82
2023/07/25 07:46:20;;;;;;;0.20;0.10;;;;;;;;;;5030010;28;20120;-81
2023/07/25 07:48:46;;;;;;;0.20;0.10;;;;;;;;;;5034006;28;20101;-81
2023/07/25 07:51:12;;;;;;;0.20;0.10;;;;;;;;;;5033899;28;20071;-81
2023/07/25 07:53:38;;;;;;;0.20;0.10;;;;;;;;;;5031296;28;20436;-84
2023/07/25 07:56:05;;;;;;;0.20;0.00;;;;;;;;;;5032924;28;20029;-82
2023/07/25 07:58:31;;;;;;;0.20;0.00;;;;;;;;;;5034945;28;20045;-82
2023/07/25 08:00:57;;;;;;;0.20;0.10;;;;;;;;;;5030757;28;20032;-82
2023/07/25 08:03:23;;;;;;;0.20;0.00;;;;;;;;;;5031263;28;20052;-83
2023/07/25 08:05:56;;;;;;;0.20;0.10;;;;;;;;;;5017199;28;20045;-81
2023/07/25 08:08:22;;;;;;;0.20;0.10;;;;;;;;;;5040354;28;20512;-81
2023/07/25 08:10:48;;;;;;;0.20;0.10;;;;;;;;;;5031155;28;20061;-82
2023/07/25 08:13:14;;;;;;;0.20;0.10;;;;;;;;;;5028163;28;20045;-80
2023/07/25 08:15:40;;;;;;;0.20;0.10;;;;;;;;;;5031031;28;20057;-81
2023/07/25 08:18:07;;;;;;;0.20;0.00;;;;;;;;;;5033181;28;20033;-82
2023/07/25 08:20:33;;;;;;;0.20;0.10;;;;;;;;;;5030745;28;20049;-81
2023/07/25 08:22:59;;;;;;;0.20;0.10;;;;;;;;;;5032981;28;20037;-83
2023/07/25 08:25:25;;;;;;;0.20;0.00;;;;;;;;;;5010216;28;20033;-83
2023/07/25 08:27:51;;;;;;;0.20;0.10;;;;;;;;;;5024442;28;20083;-81
2023/07/25 08:30:17;;;;;;;0.20;0.10;;;;;;;;;;5033060;28;20445;-81
2023/07/25 08:32:43;;;;;;;0.20;0.10;;;;;;;;;;5034825;28;20405;-83
2023/07/25 08:35:09;;;;;;;0.20;0.08;;;;;;;;;;5029895;28;20068;-82
2023/07/25 08:37:35;;;;;;;0.20;0.10;;;;;;;;;;5015377;28;20559;-83
2023/07/25 08:40:01;;;;;;;0.20;0.00;;;;;;;;;;5035554;28;20033;-81
2023/07/25 08:42:30;;;;;;;0.20;0.10;;;;;;;;;;5032103;28;20601;-82
2023/07/25 08:44:56;;;;;;;0.20;0.10;;;;;;;;;;5018140;28;20037;-82
2023/07/25 08:47:26;;;;;;;0.20;0.10;;;;;;;;;;5020199;28;20080;-84
2023/07/25 08:49:53;;;;;;;0.20;0.08;;;;;;;;;;5035823;28;20584;-84
2023/07/25 08:52:20;;;;;;;0.20;0.00;;;;;;;;;;5020240;28;20044;-81
2023/07/25 08:54:48;;;;;;;0.20;0.10;;;;;;;;;;5035753;28;20517;-82
2023/07/25 08:57:16;;;;;;;0.20;0.10;;;;;;;;;;5020724;28;20064;-84
2023/07/25 08:59:43;;;;;;;0.20;0.10;;;;;;;;;;5035371;28;20041;-82
2023/07/25 09:02:10;;;;;;;0.20;0.10;;;;;;;;;;5020416;28;20069;-82
2023/07/25 09:04:36;;;;;;;0.20;0.05;;;;;;;;;;5041109;28;20041;-83
2023/07/25 09:07:02;;;;;;;0.20;0.10;;;;;;;;;;5018978;28;20041;-80
2023/07/25 09:09:28;;;;;;;0.20;0.10;;;;;;;;;;5017431;28;20040;-82
2023/07/25 09:11:55;;;;;;;0.20;0.10;;;;;;;;;;5037077;28;20052;-83
2023/07/25 09:14:21;;;;;;;0.20;0.10;;;;;;;;;;5040660;28;20094;-84
2023/07/25 09:16:47;;;;;;;0.20;0.05;;;;;;;;;;5020148;28;20132;-86
2023/07/25 09:19:13;;;;;;;0.20;0.10;;;;;;;;;;5036688;28;20060;-82
2023/07/25 09:21:50;;;;;;;0.20;0.13;;;;;;;;;;5019451;28;20513;-82
2023/07/25 09:24:16;;;;;;;0.20;0.00;;;;;;;;;;5019935;28;20179;-83
2023/07/25 09:26:47;;;;;;;0.20;0.10;;;;;;;;;;5020592;28;20413;-82
2023/07/25 09:29:13;;;;;;;0.20;0.10;;;;;;;;;;5027232;28;20080;-83
2023/07/25 09:31:44;;;;;;;0.20;0.00;;;;;;;;;;5032906;28;20083;-83
2023/07/25 09:34:14;;;;;;;0.20;0.00;;;;;;;;;;5037365;28;20394;-83
2023/07/25 09:36:44;;;;;;;0.20;0.10;;;;;;;;;;5016041;28;20529;-84
2023/07/25 09:39:10;;;;;;;0.20;0.05;;;;;;;;;;5036248;28;20033;-84
2023/07/25 09:41:36;;;;;;;0.20;0.10;;;;;;;;;;5029649;28;20493;-80
2023/07/25 09:44:05;;;;;;;0.20;0.10;;;;;;;;;;5020088;28;20653;-83
2023/07/25 09:46:31;;;;;;;0.20;0.03;;;;;;;;;;5034174;28;20044;-83
2023/07/25 09:48:57;;;;;;;0.20;0.00;;;;;;;;;;5042799;28;20555;-81
2023/07/25 09:51:23;;;;;;;0.20;0.10;;;;;;;;;;5019596;28;20044;-83
2023/07/25 09:53:53;;;;;;;0.20;0.17;;;;;;;;;;5038313;28;20033;-83
2023/07/25 09:56:26;;;;;;;0.20;0.08;;;;;;;;;;5035484;28;20131;-82
2023/07/25 09:58:52;;;;;;;0.20;0.00;;;;;;;;;;5019715;28;20041;-82
2023/07/25 10:01:19;;;;;;;0.20;0.00;;;;;;;;;;5018901;28;20033;-82
2023/07/25 10:03:45;;;;;;;0.20;0.10;;;;;;;;;;5035255;28;20597;-82
2023/07/25 10:06:14;;;;;;;0.20;0.00;;;;;;;;;;5029401;28;20124;-82
2023/07/25 10:08:43;;;;;;;0.20;0.00;;;;;;;;;;5032541;28;20048;-84
2023/07/25 10:11:11;;;;;;;0.20;0.10;;;;;;;;;;5013704;28;20162;-81
2023/07/25 10:13:37;;;;;;;0.20;0.10;;;;;;;;;;5019054;28;20060;-83
2023/07/25 10:16:04;;;;;;;0.20;0.10;;;;;;;;;;5033170;28;20067;-84
2023/07/25 10:18:34;;;;;;;0.20;0.08;;;;;;;;;;5017933;28;20176;-83
2023/07/25 10:21:00;;;;;;;0.20;0.00;;;;;;;;;;5035398;28;20123;-82
2023/07/25 10:23:36;;;;;;;0.20;0.20;;;;;;;;;;5019815;28;20051;-81
2023/07/25 10:26:10;;;;;;;0.20;0.10;;;;;;;;;;5014535;28;20064;-82
2023/07/25 10:28:36;;;;;;;0.20;0.10;;;;;;;;;;5019590;28;20060;-82
2023/07/25 10:31:05;;;;;;;0.20;0.10;;;;;;;;;;5018383;28;20048;-83
2023/07/25 10:33:36;;;;;;;0.20;0.00;;;;;;;;;;5020381;28;20049;-82
2023/07/25 10:36:02;;;;;;;0.20;0.10;;;;;;;;;;5023003;28;20466;-83
2023/07/25 10:38:35;;;;;;;0.20;0.10;;;;;;;;;;5035627;28;20460;-81
2023/07/25 10:41:01;;;;;;;0.28;0.13;;;;;;;;;;5035102;28;20375;-83
2023/07/25 10:43:28;;;;;;;0.20;0.10;;;;;;;;;;5018902;28;20052;-83
2023/07/25 10:45:56;;;;;;;0.20;0.10;;;;;;;;;;5034371;28;20416;-82
2023/07/25 10:48:33;;;;;;;0.20;0.10;;;;;;;;;;5035982;28;20207;-84
2023/07/25 10:51:00;;;;;;;0.20;0.00;;;;;;;;;;5018384;28;20643;-81
2023/07/25 10:53:26;;;;;;;0.20;0.00;;;;;;;;;;5034715;28;20437;-84
2023/07/25 10:56:04;;;;;;;0.20;0.00;;;;;;;;;;5036018;28;20127;-84
2023/07/25 10:58:40;;;;;;;0.20;0.10;;;;;;;;;;5031600;28;20081;-82
2023/07/25 11:01:07;;;;;;;0.20;0.00;;;;;;;;;;5018604;28;20461;-81
2023/07/25 11:03:33;;;;;;;0.20;0.10;;;;;;;;;;5018350;28;20040;-82
2023/07/25 11:06:09;;;;;;;0.20;0.10;;;;;;;;;;5037874;28;20102;-82
2023/07/25 11:08:36;;;;;;;0.20;0.00;;;;;;;;;;5032845;28;20663;-81
2023/07/25 11:11:07;;;;;;;0.20;0.00;;;;;;;;;;5034174;28;20527;-82
2023/07/25 11:13:33;;;;;;;0.20;0.20;;;;;;;;;;5018176;28;20045;-81
2023/07/25 11:16:01;;;;;;;0.20;0.00;;;;;;;;;;5035327;28;20054;-83
2023/07/25 11:18:28;;;;;;;0.20;0.08;;;;;;;;;;5037076;28;20588;-84
2023/07/25 11:21:01;;;;;;;0.20;0.10;;;;;;;;;;5033763;28;20044;-83
2023/07/25 11:23:27;;;;;;;0.20;0.05;;;;;;;;;;5031160;28;20080;-82
2023/07/25 11:25:54;;;;;;;0.20;0.00;;;;;;;;;;5031036;28;20052;-84
2023/07/25 11:28:21;;;;;;;0.20;0.10;;;;;;;;;;5019399;28;20448;-81
2023/07/25 11:30:47;;;;;;;0.20;0.03;;;;;;;;;;5035597;28;20466;-83
2023/07/25 11:33:13;;;;;;;0.20;0.10;;;;;;;;;;5033726;28;20037;-83
2023/07/25 11:35:39;;;;;;;0.20;0.00;;;;;;;;;;5017884;28;20450;-81
2023/07/25 11:38:05;;;;;;;0.20;0.00;;;;;;;;;;5034642;28;20055;-81
2023/07/25 11:40:31;;;;;;;0.20;0.00;;;;;;;;;;5035343;28;20032;-83
2023/07/25 11:42:57;;;;;;;0.20;0.10;;;;;;;;;;5051445;28;20045;-80
2023/07/25 11:45:24;;;;;;;0.20;0.00;;;;;;;;;;5053575;28;20608;-83
2023/07/25 11:47:51;;;;;;;0.20;0.00;;;;;;;;;;5073308;22;20405;-86
2023/07/25 11:50:20;;;;;;;0.20;0.17;;;;;;;;;;5070950;28;20152;-85
2023/07/25 11:52:47;;;;;;;0.20;0.17;;;;;;;;;;5054800;28;20055;-85
2023/07/25 11:55:13;;;;;;;0.20;0.10;;;;;;;;;;5061663;28;20044;-88
2023/07/25 11:57:42;;;;;;;0.70;0.20;;;;;;;;;;5051014;28;20127;-85
2023/07/25 12:00:12;;;;;;;0.20;0.10;;;;;;;;;;5027474;28;20487;-87
2023/07/25 12:02:40;;;;;;;0.20;0.10;;;;;;;;;;5043817;28;20044;-87
2023/07/25 12:05:07;;;;;;;0.20;0.10;;;;;;;;;;5040203;28;20482;-82
2023/07/25 12:07:52;;;;;;;1.17;0.95;;;;;;;;;;5040913;28;20043;-85
2023/07/25 12:10:31;;;;;;;0.85;0.45;;;;;;;;;;5037802;28;20102;-85
2023/07/25 12:12:58;;;;;;;0.20;0.00;;;;;;;;;;5046609;28;20450;-84
2023/07/25 12:15:44;;;;;;;0.20;0.10;;;;;;;;;;5050737;28;20516;-85
2023/07/25 12:18:29;;;;;;;0.30;0.17;;;;;;;;;;5029926;28;20507;-87
2023/07/25 12:20:56;;;;;;;0.20;0.00;;;;;;;;;;5041479;28;20029;-83
2023/07/25 12:23:48;;;;;;;0.20;0.10;;;;;;;;;;5032186;28;20043;-86
2023/07/25 12:26:14;;;;;;;0.20;0.10;;;;;;;;;;5047387;28;20049;-86
2023/07/25 12:28:40;;;;;;;0.20;0.10;;;;;;;;;;5045584;28;20511;-84
2023/07/25 12:31:06;;;;;;;0.20;0.00;;;;;;;;;;5051076;28;20076;-89
2023/07/25 12:33:32;;;;;;;0.20;0.10;;;;;;;;;;5052400;28;20033;-84
2023/07/25 12:35:59;;;;;;;0.20;0.08;;;;;;;;;;5053091;28;20036;-84
2023/07/25 12:38:25;;;;;;;0.20;0.10;;;;;;;;;;5052532;28;20072;-85
2023/07/25 12:40:51;;;;;;;0.20;0.10;;;;;;;;;;5054203;28;20059;-87
2023/07/25 12:43:17;;;;;;;0.20;0.10;;;;;;;;;;5060417;28;20040;-89
2023/07/25 12:45:43;;;;;;;0.20;0.10;;;;;;;;;;5047172;28;20044;-87
2023/07/25 12:48:09;;;;;;;0.20;0.00;;;;;;;;;;5039175;28;20049;-88
2023/07/25 12:50:41;;;;;;;0.20;0.03;;;;;;;;;;5036837;28;20048;-88
2023/07/25 12:53:12;;;;;;;0.20;0.10;;;;;;;;;;5036319;28;20037;-86
2023/07/25 12:55:38;;;;;;;0.20;0.00;;;;;;;;;;5050493;28;20033;-85
2023/07/25 12:58:07;;;;;;;0.20;0.10;;;;;;;;;;5055769;28;20036;-87
2023/07/25 13:00:33;;;;;;;0.20;0.00;;;;;;;;;;5051569;28;20044;-88
2023/07/25 13:02:59;;;;;;;0.20;0.10;;;;;;;;;;5054599;28;20040;-86
2023/07/25 13:05:27;;;;;;;0.20;0.10;;;;;;;;;;5056551;28;20044;-85
2023/07/25 13:07:58;;;;;;;0.20;0.10;;;;;;;;;;5053290;28;20065;-87
2023/07/25 13:10:24;;;;;;;0.20;0.03;;;;;;;;;;5043278;28;20048;-86
2023/07/25 13:12:50;;;;;;;0.20;0.10;;;;;;;;;;5033931;28;20040;-85
2023/07/25 13:15:16;;;;;;;0.20;0.10;;;;;;;;;;5050606;28;20068;-86
2023/07/25 13:17:42;;;;;;;0.20;0.10;;;;;;;;;;5041866;28;20028;-85
2023/07/25 13:20:08;;;;;;;0.20;0.10;;;;;;;;;;5051588;28;20040;-89
2023/07/25 13:22:35;;;;;;;0.20;0.10;;;;;;;;;;5052800;28;20043;-85
2023/07/25 13:25:03;;;;;;;0.20;0.00;;;;;;;;;;5050572;28;20032;-87
2023/07/25 13:27:30;;;;;;;0.20;0.03;;;;;;;;;;5049439;28;20040;-88
2023/07/25 13:29:56;;;;;;;0.20;0.10;;;;;;;;;;5055163;28;20075;-86
2023/07/25 13:32:26;;;;;;;0.20;0.00;;;;;;;;;;5028065;28;20041;-88
2023/07/25 13:34:52;;;;;;;0.20;0.10;;;;;;;;;;5075466;28;20174;-88
2023/07/25 13:37:18;;;;;;;0.20;0.10;;;;;;;;;;5053478;28;20235;-84
2023/07/25 13:39:44;;;;;;;0.20;0.10;;;;;;;;;;5052684;28;20047;-86
2023/07/25 13:42:10;;;;;;;0.20;0.00;;;;;;;;;;5070453;28;20059;-86
2023/07/25 13:44:36;;;;;;;0.20;0.10;;;;;;;;;;5049317;28;20104;-86
2023/07/25 13:47:02;;;;;;;0.20;0.10;;;;;;;;;;5052167;28;20078;-85
2023/07/25 13:49:28;;;;;;;0.20;0.00;;;;;;;;;;5051025;28;20032;-84
2023/07/25 13:51:54;;;;;;;0.20;0.10;;;;;;;;;;5046871;28;20042;-88
2023/07/25 13:54:21;;;;;;;0.20;0.10;;;;;;;;;;5053069;28;20078;-85
2023/07/25 13:56:47;;;;;;;0.20;0.10;;;;;;;;;;5048690;28;20504;-85
2023/07/25 13:59:13;;;;;;;0.20;0.10;;;;;;;;;;5033280;28;20048;-84
2023/07/25 14:01:39;;;;;;;0.20;0.10;;;;;;;;;;5051713;28;20042;-87
2023/07/25 14:04:06;;;;;;;0.20;0.10;;;;;;;;;;5044849;28;20032;-88
2023/07/25 14:06:34;;;;;;;0.20;0.10;;;;;;;;;;5052767;28;20061;-86
2023/07/25 14:09:03;;;;;;;0.20;0.10;;;;;;;;;;5052956;28;20397;-86
2023/07/25 14:11:30;;;;;;;0.20;0.10;;;;;;;;;;5050476;28;20091;-86
2023/07/25 14:13:58;;;;;;;0.20;0.00;;;;;;;;;;5055333;28;20045;-88
2023/07/25 14:16:34;;;;;;;0.20;0.10;;;;;;;;;;5031541;28;20398;-86
2023/07/25 14:19:00;;;;;;;0.20;0.10;;;;;;;;;;5049089;28;20351;-85
2023/07/25 14:21:28;;;;;;;0.20;0.10;;;;;;;;;;5049171;28;20052;-87
2023/07/25 14:23:55;;;;;;;0.20;0.10;;;;;;;;;;5047876;28;20509;-88
2023/07/25 14:26:21;;;;;;;0.20;0.10;;;;;;;;;;5035143;28;20055;-88
2023/07/25 14:28:50;;;;;;;0.20;0.10;;;;;;;;;;5050331;28;20044;-86
2023/07/25 14:31:16;;;;;;;0.20;0.10;;;;;;;;;;5051087;28;20040;-87
2023/07/25 14:33:42;;;;;;;0.20;0.10;;;;;;;;;;5049059;28;20047;-87
2023/07/25 14:36:11;;;;;;;0.20;0.10;;;;;;;;;;5042477;28;20040;-85
2023/07/25 14:38:38;;;;;;;0.20;0.10;;;;;;;;;;5055469;28;20043;-87
2023/07/25 14:41:04;;;;;;;0.20;0.10;;;;;;;;;;5050919;28;20037;-86